sensor_id;sensor_type;location;lat;lon;timestamp;P1;durP1;ratioP1;P2;durP2;ratioP2
19036;SDS011;9651;49.138;8.900;2022-10-31T00:01:10;8.77;;;5.80;;
19036;SDS011;9651;49.138;8.900;2022-10-31T00:05:13;7.60;;;5.63;;
19036;SDS011;9651;49.138;8.900;2022-10-31T00:09:15;10.57;;;6.27;;
19036;SDS011;9651;49.138;8.900;2022-10-31T00:13:17;12.63;;;6.70;;
19036;SDS011;9651;49.138;8.900;2022-10-31T00:17:20;11.53;;;7.00;;
19036;SDS011;9651;49.138;8.900;2022-10-31T00:21:22;20.60;;;6.17;;
19036;SDS011;9651;49.138;8.900;2022-10-31T00:25:24;10.37;;;5.47;;
19036;SDS011;9651;49.138;8.900;2022-10-31T00:29:26;11.83;;;5.67;;
19036;SDS011;9651;49.138;8.900;2022-10-31T00:33:30;8.13;;;5.57;;
19036;SDS011;9651;49.138;8.900;2022-10-31T00:37:34;11.17;;;5.77;;
19036;SDS011;9651;49.138;8.900;2022-10-31T00:41:36;12.07;;;7.53;;
19036;SDS011;9651;49.138;8.900;2022-10-31T00:45:43;12.50;;;6.70;;
19036;SDS011;9651;49.138;8.900;2022-10-31T00:49:46;14.83;;;8.23;;
19036;SDS011;9651;49.138;8.900;2022-10-31T00:53:48;12.27;;;6.80;;
19036;SDS011;9651;49.138;8.900;2022-10-31T00:57:50;14.03;;;6.97;;
19036;SDS011;9651;49.138;8.900;2022-10-31T01:01:52;17.90;;;9.17;;
19036;SDS011;9651;49.138;8.900;2022-10-31T01:06:00;16.97;;;7.00;;
19036;SDS011;9651;49.138;8.900;2022-10-31T01:10:06;13.87;;;6.20;;
19036;SDS011;9651;49.138;8.900;2022-10-31T01:14:09;9.10;;;6.10;;
19036;SDS011;9651;49.138;8.900;2022-10-31T01:18:11;7.90;;;6.17;;
19036;SDS011;9651;49.138;8.900;2022-10-31T01:22:14;10.07;;;6.03;;
19036;SDS011;9651;49.138;8.900;2022-10-31T01:26:16;12.77;;;6.47;;
19036;SDS011;9651;49.138;8.900;2022-10-31T01:30:19;12.70;;;6.90;;
19036;SDS011;9651;49.138;8.900;2022-10-31T01:34:21;17.47;;;7.50;;
19036;SDS011;9651;49.138;8.900;2022-10-31T01:38:24;12.90;;;6.00;;
19036;SDS011;9651;49.138;8.900;2022-10-31T01:42:27;12.17;;;6.37;;
19036;SDS011;9651;49.138;8.900;2022-10-31T01:46:30;9.33;;;5.77;;
19036;SDS011;9651;49.138;8.900;2022-10-31T01:50:34;11.67;;;5.97;;
19036;SDS011;9651;49.138;8.900;2022-10-31T01:54:41;8.33;;;5.73;;
19036;SDS011;9651;49.138;8.900;2022-10-31T01:58:46;8.97;;;6.43;;
19036;SDS011;9651;49.138;8.900;2022-10-31T02:02:50;11.30;;;6.30;;
19036;SDS011;9651;49.138;8.900;2022-10-31T02:06:56;8.57;;;5.87;;
19036;SDS011;9651;49.138;8.900;2022-10-31T02:11:05;8.57;;;6.10;;
19036;SDS011;9651;49.138;8.900;2022-10-31T02:15:08;8.97;;;5.63;;
19036;SDS011;9651;49.138;8.900;2022-10-31T02:19:11;6.70;;;5.53;;
19036;SDS011;9651;49.138;8.900;2022-10-31T02:23:39;8.57;;;6.00;;
19036;SDS011;9651;49.138;8.900;2022-10-31T02:28:13;9.23;;;6.03;;
19036;SDS011;9651;49.138;8.900;2022-10-31T02:32:29;9.13;;;5.50;;
19036;SDS011;9651;49.138;8.900;2022-10-31T02:36:38;8.57;;;5.83;;
19036;SDS011;9651;49.138;8.900;2022-10-31T02:40:47;11.57;;;5.93;;
19036;SDS011;9651;49.138;8.900;2022-10-31T02:45:00;7.30;;;5.80;;
19036;SDS011;9651;49.138;8.900;2022-10-31T02:49:13;6.63;;;5.37;;
19036;SDS011;9651;49.138;8.900;2022-10-31T02:53:19;8.00;;;5.53;;
19036;SDS011;9651;49.138;8.900;2022-10-31T02:57:22;13.33;;;6.47;;
19036;SDS011;9651;49.138;8.900;2022-10-31T03:06:04;6.40;;;4.73;;
19036;SDS011;9651;49.138;8.900;2022-10-31T03:10:13;6.63;;;5.30;;
19036;SDS011;9651;49.138;8.900;2022-10-31T03:14:23;8.23;;;5.30;;
19036;SDS011;9651;49.138;8.900;2022-10-31T03:18:34;9.13;;;5.70;;
19036;SDS011;9651;49.138;8.900;2022-10-31T03:22:41;10.27;;;5.83;;
19036;SDS011;9651;49.138;8.900;2022-10-31T03:26:46;7.00;;;5.57;;
19036;SDS011;9651;49.138;8.900;2022-10-31T03:30:52;7.87;;;5.03;;
19036;SDS011;9651;49.138;8.900;2022-10-31T03:34:56;8.00;;;5.43;;
19036;SDS011;9651;49.138;8.900;2022-10-31T03:39:04;8.07;;;5.10;;
19036;SDS011;9651;49.138;8.900;2022-10-31T03:43:12;4.73;;;4.23;;
19036;SDS011;9651;49.138;8.900;2022-10-31T03:47:17;6.70;;;4.50;;
19036;SDS011;9651;49.138;8.900;2022-10-31T03:51:22;5.60;;;5.00;;
19036;SDS011;9651;49.138;8.900;2022-10-31T03:55:30;4.77;;;4.10;;
19036;SDS011;9651;49.138;8.900;2022-10-31T03:59:36;5.47;;;4.50;;
19036;SDS011;9651;49.138;8.900;2022-10-31T04:03:43;4.60;;;3.97;;
19036;SDS011;9651;49.138;8.900;2022-10-31T04:07:47;5.70;;;4.00;;
19036;SDS011;9651;49.138;8.900;2022-10-31T04:11:55;10.30;;;4.33;;
19036;SDS011;9651;49.138;8.900;2022-10-31T04:16:23;5.47;;;3.90;;
19036;SDS011;9651;49.138;8.900;2022-10-31T04:20:30;6.00;;;4.50;;
19036;SDS011;9651;49.138;8.900;2022-10-31T04:24:32;7.53;;;4.63;;
19036;SDS011;9651;49.138;8.900;2022-10-31T04:28:35;5.17;;;4.23;;
19036;SDS011;9651;49.138;8.900;2022-10-31T04:32:37;6.10;;;4.93;;
19036;SDS011;9651;49.138;8.900;2022-10-31T04:36:42;5.33;;;4.20;;
19036;SDS011;9651;49.138;8.900;2022-10-31T04:40:44;6.70;;;4.57;;
19036;SDS011;9651;49.138;8.900;2022-10-31T04:45:08;6.07;;;4.70;;
19036;SDS011;9651;49.138;8.900;2022-10-31T04:49:11;4.83;;;4.10;;
19036;SDS011;9651;49.138;8.900;2022-10-31T04:53:13;6.43;;;4.50;;
19036;SDS011;9651;49.138;8.900;2022-10-31T04:57:44;4.87;;;4.07;;
19036;SDS011;9651;49.138;8.900;2022-10-31T05:01:49;6.70;;;4.67;;
19036;SDS011;9651;49.138;8.900;2022-10-31T05:05:55;6.93;;;4.33;;
19036;SDS011;9651;49.138;8.900;2022-10-31T05:09:57;8.77;;;6.20;;
19036;SDS011;9651;49.138;8.900;2022-10-31T05:13:59;5.17;;;4.20;;
19036;SDS011;9651;49.138;8.900;2022-10-31T05:18:34;6.67;;;4.80;;
19036;SDS011;9651;49.138;8.900;2022-10-31T05:22:45;4.97;;;4.00;;
19036;SDS011;9651;49.138;8.900;2022-10-31T05:26:49;4.17;;;3.73;;
19036;SDS011;9651;49.138;8.900;2022-10-31T05:30:51;5.53;;;4.10;;
19036;SDS011;9651;49.138;8.900;2022-10-31T05:34:56;4.70;;;4.10;;
19036;SDS011;9651;49.138;8.900;2022-10-31T05:39:33;7.60;;;4.07;;
19036;SDS011;9651;49.138;8.900;2022-10-31T05:43:42;5.53;;;4.37;;
19036;SDS011;9651;49.138;8.900;2022-10-31T05:47:49;5.87;;;3.83;;
19036;SDS011;9651;49.138;8.900;2022-10-31T05:52:11;5.67;;;3.90;;
19036;SDS011;9651;49.138;8.900;2022-10-31T05:56:22;4.80;;;3.97;;
19036;SDS011;9651;49.138;8.900;2022-10-31T06:00:24;6.00;;;4.97;;
19036;SDS011;9651;49.138;8.900;2022-10-31T06:04:26;6.60;;;4.77;;
19036;SDS011;9651;49.138;8.900;2022-10-31T06:08:29;6.43;;;4.43;;
19036;SDS011;9651;49.138;8.900;2022-10-31T06:12:35;7.33;;;6.20;;
19036;SDS011;9651;49.138;8.900;2022-10-31T06:17:06;6.53;;;5.13;;
19036;SDS011;9651;49.138;8.900;2022-10-31T06:21:23;7.30;;;5.53;;
19036;SDS011;9651;49.138;8.900;2022-10-31T06:25:27;8.67;;;4.97;;
19036;SDS011;9651;49.138;8.900;2022-10-31T06:29:29;6.00;;;5.23;;
19036;SDS011;9651;49.138;8.900;2022-10-31T06:33:40;5.40;;;4.90;;
19036;SDS011;9651;49.138;8.900;2022-10-31T06:37:42;5.13;;;4.60;;
19036;SDS011;9651;49.138;8.900;2022-10-31T06:42:03;5.23;;;4.43;;
19036;SDS011;9651;49.138;8.900;2022-10-31T06:46:06;8.77;;;4.70;;
19036;SDS011;9651;49.138;8.900;2022-10-31T06:50:13;7.00;;;5.17;;
19036;SDS011;9651;49.138;8.900;2022-10-31T06:54:15;6.63;;;5.13;;
19036;SDS011;9651;49.138;8.900;2022-10-31T06:58:20;7.63;;;5.20;;
19036;SDS011;9651;49.138;8.900;2022-10-31T07:02:23;11.10;;;5.67;;
19036;SDS011;9651;49.138;8.900;2022-10-31T07:06:25;9.27;;;6.17;;
19036;SDS011;9651;49.138;8.900;2022-10-31T07:10:29;13.20;;;6.10;;
19036;SDS011;9651;49.138;8.900;2022-10-31T07:14:37;6.60;;;4.43;;
19036;SDS011;9651;49.138;8.900;2022-10-31T07:18:39;5.13;;;4.63;;
19036;SDS011;9651;49.138;8.900;2022-10-31T07:22:42;5.23;;;4.50;;
19036;SDS011;9651;49.138;8.900;2022-10-31T07:26:45;4.33;;;3.73;;
19036;SDS011;9651;49.138;8.900;2022-10-31T07:30:50;4.43;;;3.67;;
19036;SDS011;9651;49.138;8.900;2022-10-31T07:34:54;7.20;;;5.30;;
19036;SDS011;9651;49.138;8.900;2022-10-31T07:38:57;5.10;;;4.60;;
19036;SDS011;9651;49.138;8.900;2022-10-31T07:43:00;4.40;;;4.00;;
19036;SDS011;9651;49.138;8.900;2022-10-31T07:47:19;4.80;;;4.27;;
19036;SDS011;9651;49.138;8.900;2022-10-31T07:51:40;6.47;;;5.27;;
19036;SDS011;9651;49.138;8.900;2022-10-31T07:56:07;8.47;;;5.87;;
19036;SDS011;9651;49.138;8.900;2022-10-31T08:00:10;7.40;;;6.20;;
19036;SDS011;9651;49.138;8.900;2022-10-31T08:04:16;6.57;;;5.43;;
19036;SDS011;9651;49.138;8.900;2022-10-31T08:08:36;6.60;;;5.10;;
19036;SDS011;9651;49.138;8.900;2022-10-31T08:12:38;5.00;;;4.33;;
19036;SDS011;9651;49.138;8.900;2022-10-31T08:16:41;4.37;;;3.97;;
19036;SDS011;9651;49.138;8.900;2022-10-31T08:20:46;5.07;;;3.90;;
19036;SDS011;9651;49.138;8.900;2022-10-31T08:24:48;5.87;;;4.30;;
19036;SDS011;9651;49.138;8.900;2022-10-31T08:28:50;5.27;;;3.93;;
19036;SDS011;9651;49.138;8.900;2022-10-31T08:33:01;5.57;;;3.83;;
19036;SDS011;9651;49.138;8.900;2022-10-31T08:37:25;4.60;;;4.10;;
19036;SDS011;9651;49.138;8.900;2022-10-31T08:41:29;5.07;;;3.70;;
19036;SDS011;9651;49.138;8.900;2022-10-31T08:45:33;7.33;;;3.90;;
19036;SDS011;9651;49.138;8.900;2022-10-31T08:49:36;5.17;;;4.23;;
19036;SDS011;9651;49.138;8.900;2022-10-31T08:53:39;10.40;;;4.70;;
19036;SDS011;9651;49.138;8.900;2022-10-31T08:58:11;5.33;;;4.40;;
19036;SDS011;9651;49.138;8.900;2022-10-31T09:02:21;6.93;;;4.27;;
19036;SDS011;9651;49.138;8.900;2022-10-31T09:06:25;8.33;;;5.00;;
19036;SDS011;9651;49.138;8.900;2022-10-31T09:10:29;7.50;;;4.67;;
19036;SDS011;9651;49.138;8.900;2022-10-31T09:14:32;6.67;;;4.07;;
19036;SDS011;9651;49.138;8.900;2022-10-31T09:18:55;5.63;;;4.10;;
19036;SDS011;9651;49.138;8.900;2022-10-31T09:22:59;7.53;;;4.63;;
19036;SDS011;9651;49.138;8.900;2022-10-31T09:27:05;4.93;;;4.07;;
19036;SDS011;9651;49.138;8.900;2022-10-31T09:31:11;7.93;;;4.00;;
19036;SDS011;9651;49.138;8.900;2022-10-31T09:35:32;4.77;;;4.00;;
19036;SDS011;9651;49.138;8.900;2022-10-31T09:39:35;4.80;;;4.30;;
19036;SDS011;9651;49.138;8.900;2022-10-31T09:43:49;5.37;;;4.33;;
19036;SDS011;9651;49.138;8.900;2022-10-31T09:48:05;7.43;;;5.00;;
19036;SDS011;9651;49.138;8.900;2022-10-31T09:52:47;7.53;;;4.35;;
19036;SDS011;9651;49.138;8.900;2022-10-31T09:56:58;6.25;;;4.80;;
19036;SDS011;9651;49.138;8.900;2022-10-31T10:01:02;7.00;;;4.70;;
19036;SDS011;9651;49.138;8.900;2022-10-31T10:05:09;10.00;;;4.15;;
19036;SDS011;9651;49.138;8.900;2022-10-31T10:09:15;7.68;;;4.35;;
19036;SDS011;9651;49.138;8.900;2022-10-31T10:13:37;13.32;;;6.38;;
19036;SDS011;9651;49.138;8.900;2022-10-31T12:54:16;11.73;;;6.80;;
19036;SDS011;9651;49.138;8.900;2022-10-31T12:58:29;11.57;;;6.60;;
19036;SDS011;9651;49.138;8.900;2022-10-31T13:02:35;11.73;;;7.00;;
19036;SDS011;9651;49.138;8.900;2022-10-31T13:06:46;9.63;;;6.03;;
19036;SDS011;9651;49.138;8.900;2022-10-31T13:11:02;9.93;;;6.28;;
19036;SDS011;9651;49.138;8.900;2022-10-31T13:15:12;12.30;;;6.20;;
19036;SDS011;9651;49.138;8.900;2022-10-31T13:19:18;8.73;;;6.20;;
19036;SDS011;9651;49.138;8.900;2022-10-31T13:23:24;16.60;;;6.80;;
19036;SDS011;9651;49.138;8.900;2022-10-31T13:27:44;10.47;;;7.03;;
19036;SDS011;9651;49.138;8.900;2022-10-31T13:31:50;13.57;;;7.50;;
19036;SDS011;9651;49.138;8.900;2022-10-31T13:35:52;10.63;;;6.83;;
19036;SDS011;9651;49.138;8.900;2022-10-31T13:40:11;14.50;;;6.97;;
19036;SDS011;9651;49.138;8.900;2022-10-31T13:44:20;11.57;;;6.93;;
19036;SDS011;9651;49.138;8.900;2022-10-31T13:48:34;17.37;;;7.50;;
19036;SDS011;9651;49.138;8.900;2022-10-31T13:52:39;21.33;;;7.40;;
19036;SDS011;9651;49.138;8.900;2022-10-31T13:56:40;14.70;;;6.17;;
19036;SDS011;9651;49.138;8.900;2022-10-31T14:00:44;9.07;;;6.07;;
19036;SDS011;9651;49.138;8.900;2022-10-31T14:04:46;10.40;;;6.27;;
19036;SDS011;9651;49.138;8.900;2022-10-31T14:08:50;15.27;;;6.07;;
19036;SDS011;9651;49.138;8.900;2022-10-31T14:12:53;13.63;;;8.37;;
19036;SDS011;9651;49.138;8.900;2022-10-31T14:17:06;16.67;;;7.95;;
19036;SDS011;9651;49.138;8.900;2022-10-31T14:21:26;12.27;;;7.30;;
19036;SDS011;9651;49.138;8.900;2022-10-31T14:25:30;11.35;;;7.20;;
19036;SDS011;9651;49.138;8.900;2022-10-31T14:29:34;10.52;;;6.82;;
19036;SDS011;9651;49.138;8.900;2022-10-31T14:33:37;16.70;;;6.25;;
19036;SDS011;9651;49.138;8.900;2022-10-31T14:42:37;11.50;;;6.40;;
19036;SDS011;9651;49.138;8.900;2022-10-31T14:46:52;11.13;;;6.40;;
19036;SDS011;9651;49.138;8.900;2022-10-31T14:51:00;13.07;;;6.88;;
19036;SDS011;9651;49.138;8.900;2022-10-31T14:55:05;12.63;;;6.63;;
19036;SDS011;9651;49.138;8.900;2022-10-31T14:59:13;11.60;;;6.03;;
19036;SDS011;9651;49.138;8.900;2022-10-31T15:03:22;12.03;;;5.33;;
19036;SDS011;9651;49.138;8.900;2022-10-31T15:07:29;14.73;;;6.93;;
19036;SDS011;9651;49.138;8.900;2022-10-31T15:25:05;9.23;;;6.00;;
19036;SDS011;9651;49.138;8.900;2022-10-31T15:29:18;9.93;;;6.73;;
19036;SDS011;9651;49.138;8.900;2022-10-31T15:33:23;10.07;;;7.40;;
19036;SDS011;9651;49.138;8.900;2022-10-31T15:37:26;12.83;;;7.73;;
19036;SDS011;9651;49.138;8.900;2022-10-31T15:41:31;19.40;;;8.07;;
19036;SDS011;9651;49.138;8.900;2022-10-31T15:45:37;14.40;;;7.93;;
19036;SDS011;9651;49.138;8.900;2022-10-31T15:49:39;10.17;;;6.67;;
19036;SDS011;9651;49.138;8.900;2022-10-31T15:53:45;14.27;;;6.80;;
19036;SDS011;9651;49.138;8.900;2022-10-31T15:57:51;12.00;;;6.53;;
19036;SDS011;9651;49.138;8.900;2022-10-31T16:01:58;14.50;;;7.83;;
19036;SDS011;9651;49.138;8.900;2022-10-31T16:06:02;14.60;;;8.63;;
19036;SDS011;9651;49.138;8.900;2022-10-31T16:10:21;23.83;;;11.33;;
19036;SDS011;9651;49.138;8.900;2022-10-31T16:14:27;20.10;;;9.83;;
19036;SDS011;9651;49.138;8.900;2022-10-31T16:18:36;16.20;;;9.27;;
19036;SDS011;9651;49.138;8.900;2022-10-31T16:22:40;14.80;;;9.07;;
19036;SDS011;9651;49.138;8.900;2022-10-31T16:26:46;20.00;;;13.23;;
19036;SDS011;9651;49.138;8.900;2022-10-31T16:30:51;17.13;;;9.27;;
19036;SDS011;9651;49.138;8.900;2022-10-31T16:34:57;13.87;;;8.53;;
19036;SDS011;9651;49.138;8.900;2022-10-31T16:39:00;18.60;;;10.17;;
19036;SDS011;9651;49.138;8.900;2022-10-31T16:43:02;15.37;;;8.43;;
19036;SDS011;9651;49.138;8.900;2022-10-31T16:47:09;16.73;;;8.37;;
19036;SDS011;9651;49.138;8.900;2022-10-31T16:51:13;15.17;;;10.37;;
19036;SDS011;9651;49.138;8.900;2022-10-31T16:55:16;18.37;;;10.07;;
19036;SDS011;9651;49.138;8.900;2022-10-31T16:59:19;15.47;;;9.27;;
19036;SDS011;9651;49.138;8.900;2022-10-31T17:03:23;28.27;;;16.57;;
19036;SDS011;9651;49.138;8.900;2022-10-31T17:07:25;42.77;;;23.70;;
19036;SDS011;9651;49.138;8.900;2022-10-31T17:11:27;20.30;;;12.47;;
19036;SDS011;9651;49.138;8.900;2022-10-31T17:15:30;17.80;;;10.40;;
19036;SDS011;9651;49.138;8.900;2022-10-31T17:19:39;17.50;;;11.67;;
19036;SDS011;9651;49.138;8.900;2022-10-31T17:23:41;19.80;;;11.43;;
19036;SDS011;9651;49.138;8.900;2022-10-31T17:27:44;19.13;;;10.40;;
19036;SDS011;9651;49.138;8.900;2022-10-31T17:31:46;17.03;;;9.63;;
19036;SDS011;9651;49.138;8.900;2022-10-31T17:35:49;17.33;;;10.63;;
19036;SDS011;9651;49.138;8.900;2022-10-31T17:39:51;17.07;;;10.20;;
19036;SDS011;9651;49.138;8.900;2022-10-31T17:43:53;23.00;;;13.70;;
19036;SDS011;9651;49.138;8.900;2022-10-31T17:47:56;33.73;;;19.53;;
19036;SDS011;9651;49.138;8.900;2022-10-31T17:51:59;50.73;;;25.77;;
19036;SDS011;9651;49.138;8.900;2022-10-31T17:56:01;38.60;;;23.50;;
19036;SDS011;9651;49.138;8.900;2022-10-31T18:00:05;22.00;;;15.43;;
19036;SDS011;9651;49.138;8.900;2022-10-31T18:04:11;20.30;;;10.87;;
19036;SDS011;9651;49.138;8.900;2022-10-31T18:08:15;20.17;;;12.30;;
19036;SDS011;9651;49.138;8.900;2022-10-31T18:12:16;16.23;;;11.30;;
19036;SDS011;9651;49.138;8.900;2022-10-31T18:16:18;19.20;;;9.83;;
19036;SDS011;9651;49.138;8.900;2022-10-31T18:20:20;15.53;;;9.23;;
19036;SDS011;9651;49.138;8.900;2022-10-31T18:24:23;17.13;;;12.03;;
19036;SDS011;9651;49.138;8.900;2022-10-31T18:28:27;19.73;;;12.13;;
19036;SDS011;9651;49.138;8.900;2022-10-31T18:32:29;20.10;;;13.43;;
19036;SDS011;9651;49.138;8.900;2022-10-31T18:36:31;18.63;;;12.57;;
19036;SDS011;9651;49.138;8.900;2022-10-31T18:40:34;16.90;;;11.60;;
19036;SDS011;9651;49.138;8.900;2022-10-31T18:44:36;17.67;;;10.57;;
19036;SDS011;9651;49.138;8.900;2022-10-31T18:48:39;25.20;;;11.20;;
19036;SDS011;9651;49.138;8.900;2022-10-31T18:52:41;19.87;;;9.80;;
19036;SDS011;9651;49.138;8.900;2022-10-31T18:56:44;14.40;;;10.07;;
19036;SDS011;9651;49.138;8.900;2022-10-31T19:00:46;19.87;;;9.10;;
19036;SDS011;9651;49.138;8.900;2022-10-31T19:04:48;12.60;;;8.33;;
19036;SDS011;9651;49.138;8.900;2022-10-31T19:08:55;12.70;;;8.70;;
19036;SDS011;9651;49.138;8.900;2022-10-31T19:13:00;20.20;;;10.33;;
19036;SDS011;9651;49.138;8.900;2022-10-31T19:17:02;16.10;;;9.00;;
19036;SDS011;9651;49.138;8.900;2022-10-31T19:21:04;17.23;;;8.03;;
19036;SDS011;9651;49.138;8.900;2022-10-31T19:25:07;14.40;;;8.27;;
19036;SDS011;9651;49.138;8.900;2022-10-31T19:29:10;16.40;;;8.73;;
19036;SDS011;9651;49.138;8.900;2022-10-31T19:33:12;17.50;;;8.90;;
19036;SDS011;9651;49.138;8.900;2022-10-31T19:37:14;13.97;;;9.10;;
19036;SDS011;9651;49.138;8.900;2022-10-31T19:41:17;16.00;;;10.73;;
19036;SDS011;9651;49.138;8.900;2022-10-31T19:45:21;24.00;;;16.57;;
19036;SDS011;9651;49.138;8.900;2022-10-31T19:49:23;23.33;;;16.07;;
19036;SDS011;9651;49.138;8.900;2022-10-31T19:53:25;19.97;;;13.47;;
19036;SDS011;9651;49.138;8.900;2022-10-31T19:57:28;21.43;;;12.20;;
19036;SDS011;9651;49.138;8.900;2022-10-31T20:01:34;18.87;;;12.40;;
19036;SDS011;9651;49.138;8.900;2022-10-31T20:05:38;17.40;;;12.93;;
19036;SDS011;9651;49.138;8.900;2022-10-31T20:09:43;21.17;;;15.27;;
19036;SDS011;9651;49.138;8.900;2022-10-31T20:13:45;19.73;;;12.80;;
19036;SDS011;9651;49.138;8.900;2022-10-31T20:17:48;21.07;;;12.83;;
19036;SDS011;9651;49.138;8.900;2022-10-31T20:21:50;15.77;;;11.17;;
19036;SDS011;9651;49.138;8.900;2022-10-31T20:25:52;15.63;;;11.03;;
19036;SDS011;9651;49.138;8.900;2022-10-31T20:29:54;18.83;;;10.60;;
19036;SDS011;9651;49.138;8.900;2022-10-31T20:33:57;17.13;;;9.83;;
19036;SDS011;9651;49.138;8.900;2022-10-31T20:37:59;17.33;;;10.40;;
19036;SDS011;9651;49.138;8.900;2022-10-31T20:42:00;14.90;;;10.73;;
19036;SDS011;9651;49.138;8.900;2022-10-31T20:46:03;13.60;;;9.47;;
19036;SDS011;9651;49.138;8.900;2022-10-31T20:50:08;13.67;;;9.73;;
19036;SDS011;9651;49.138;8.900;2022-10-31T20:54:10;14.23;;;10.73;;
19036;SDS011;9651;49.138;8.900;2022-10-31T20:58:13;14.63;;;11.40;;
19036;SDS011;9651;49.138;8.900;2022-10-31T21:02:15;18.87;;;11.93;;
19036;SDS011;9651;49.138;8.900;2022-10-31T21:06:18;14.77;;;10.80;;
19036;SDS011;9651;49.138;8.900;2022-10-31T21:10:25;22.00;;;12.37;;
19036;SDS011;9651;49.138;8.900;2022-10-31T21:14:27;18.23;;;13.17;;
19036;SDS011;9651;49.138;8.900;2022-10-31T21:18:29;19.50;;;12.27;;
19036;SDS011;9651;49.138;8.900;2022-10-31T21:22:32;16.80;;;11.43;;
19036;SDS011;9651;49.138;8.900;2022-10-31T21:26:35;15.17;;;11.50;;
19036;SDS011;9651;49.138;8.900;2022-10-31T21:30:38;19.43;;;13.73;;
19036;SDS011;9651;49.138;8.900;2022-10-31T21:34:41;20.33;;;13.20;;
19036;SDS011;9651;49.138;8.900;2022-10-31T21:38:47;18.13;;;12.80;;
19036;SDS011;9651;49.138;8.900;2022-10-31T21:42:49;19.47;;;12.43;;
19036;SDS011;9651;49.138;8.900;2022-10-31T21:46:51;16.63;;;10.70;;
19036;SDS011;9651;49.138;8.900;2022-10-31T21:50:53;16.37;;;10.87;;
19036;SDS011;9651;49.138;8.900;2022-10-31T21:54:56;22.83;;;10.80;;
19036;SDS011;9651;49.138;8.900;2022-10-31T21:58:58;12.60;;;10.20;;
19036;SDS011;9651;49.138;8.900;2022-10-31T22:03:00;13.60;;;9.10;;
19036;SDS011;9651;49.138;8.900;2022-10-31T22:07:02;18.97;;;11.00;;
19036;SDS011;9651;49.138;8.900;2022-10-31T22:11:06;15.50;;;10.03;;
19036;SDS011;9651;49.138;8.900;2022-10-31T22:15:09;19.97;;;11.33;;
19036;SDS011;9651;49.138;8.900;2022-10-31T22:19:11;18.93;;;11.07;;
19036;SDS011;9651;49.138;8.900;2022-10-31T22:23:14;13.60;;;9.83;;
19036;SDS011;9651;49.138;8.900;2022-10-31T22:27:17;13.43;;;9.53;;
19036;SDS011;9651;49.138;8.900;2022-10-31T22:31:20;15.43;;;10.77;;
19036;SDS011;9651;49.138;8.900;2022-10-31T22:35:23;15.83;;;9.77;;
19036;SDS011;9651;49.138;8.900;2022-10-31T22:39:25;16.20;;;12.23;;
19036;SDS011;9651;49.138;8.900;2022-10-31T22:43:29;17.27;;;11.03;;
19036;SDS011;9651;49.138;8.900;2022-10-31T22:47:30;15.20;;;10.53;;
19036;SDS011;9651;49.138;8.900;2022-10-31T22:51:33;17.93;;;11.37;;
19036;SDS011;9651;49.138;8.900;2022-10-31T22:55:37;16.70;;;9.73;;
19036;SDS011;9651;49.138;8.900;2022-10-31T22:59:40;18.87;;;11.27;;
19036;SDS011;9651;49.138;8.900;2022-10-31T23:03:42;20.07;;;10.57;;
19036;SDS011;9651;49.138;8.900;2022-10-31T23:07:44;16.33;;;11.00;;
19036;SDS011;9651;49.138;8.900;2022-10-31T23:11:46;16.23;;;10.23;;
19036;SDS011;9651;49.138;8.900;2022-10-31T23:15:49;18.30;;;10.17;;
19036;SDS011;9651;49.138;8.900;2022-10-31T23:19:50;14.53;;;10.60;;
19036;SDS011;9651;49.138;8.900;2022-10-31T23:23:52;13.23;;;9.03;;
19036;SDS011;9651;49.138;8.900;2022-10-31T23:27:53;12.83;;;9.67;;
19036;SDS011;9651;49.138;8.900;2022-10-31T23:31:57;15.20;;;10.20;;
19036;SDS011;9651;49.138;8.900;2022-10-31T23:35:58;12.87;;;9.17;;
19036;SDS011;9651;49.138;8.900;2022-10-31T23:40:00;14.40;;;9.53;;
19036;SDS011;9651;49.138;8.900;2022-10-31T23:44:03;14.70;;;9.50;;
19036;SDS011;9651;49.138;8.900;2022-10-31T23:48:06;13.17;;;10.00;;
19036;SDS011;9651;49.138;8.900;2022-10-31T23:52:08;16.07;;;10.53;;
19036;SDS011;9651;49.138;8.900;2022-10-31T23:56:11;17.00;;;10.53;;
